北京 の空港の天気 - METARとTAF

北京首都国際空港 ( ZBAA / PEK ) - 中国 北京市
飛行場実況気象(Metar)
観測時間12/01 00:30 CST (11/30 16:30 UTC)
風向・風速北北西 2m/s
視程10km以上
天気現象
なし
気温-12℃
湿度61%
気圧1037hPa
METARZBAA 301630Z 34002MPS CAVOK M12/M18 Q1037 NOSIG
過去の天気等 Google飛行場航空写真 Wunderground天気予報

過去48時間のMETAR

飛行場予報(TAF)
発表時間: 11/30 17:02 CST (11/30 09:02 UTC)
予報対象時間: 30日20時 CST ~ 1日20時 CST
風向・風速北西 4m/s
視程10km以上
なし
TAF ZBAA 300902Z 3012/0112 31004MPS CAVOK TX00/0107Z TNM09/3021Z